Kona International At Keahole, HI

2:18 PM HST on October 25, 2014 (GMT -1000)
Hilo International | Change Station
CLOSE
Current Station
Airport
Location: Hilo,
Elevation: 36 ft
Nearby Weather Stations

Elev 36 ft 19.72 °N, 155.05 °W | Updated 25 minutes ago

Scattered Clouds
Scattered Clouds
82 °F
Feels Like 84 °F
N
6
Wind Variable Wind from ENE

Today
High -- | Low -- °F
--% Chance of Precip.
Yesterday
High -- | Low -- °F
Precip. -- in
6:22 AM 5:53 PM
Waxing Crescent, 5% visible
Pressure 29.98 in
Visibility 10.0 miles
Clouds Scattered Clouds 3800 ft
Scattered Clouds 15000 ft
Heat Index 84 °F
Dew Point 66 °F
Humidity 58%
Rainfall 0.07 in
Snow Depth Not available.
UV 6 out of 12
Pollen Not available.
Air Quality Not available.
Flu Activity Sporadic
METAR PHTO 252353Z 07005KT 10SM SCT038 SCT150 28/19 A2998 RMK AO2 SLP150 60006 T02780189 10294 20222 56026

More Conditions Fewer Conditions

Pressure 29.98 in
Visibility 10.0 miles
Clouds Scattered Clouds 3800 ft
Scattered Clouds 15000 ft
Heat Index 84 °F
Dew Point 66 °F
Humidity 58%
Rainfall 0.07 in
Snow Depth Not available.
UV 6 out of 12
Pollen Not available.
Air Quality Not available.
Flu Activity Sporadic
METAR PHTO 252353Z 07005KT 10SM SCT038 SCT150 28/19 A2998 RMK AO2 SLP150 60006 T02780189 10294 20222 56026

More Conditions Fewer Conditions

10-Day Weather Forecast

Almanac

Astronomy

Oct. 25, 2014 Rise Set
Actual Time 6:22 AM HST 5:53 PM HST
Civil Twilight 5:59 AM HST 6:16 PM HST
Nautical Twilight 5:34 AM HST 6:42 PM HST
Astronomical Twilight 5:08 AM HST 7:07 PM HST
Moon 8:02 AM HST (10/25) 7:37 PM HST (10/25)
Length of Visible Light 12h 16m
Length of Day
11h 31m
Tomorrow will be 1m 1s shorter.
Waxing Crescent, 5% of the Moon is Illuminated
Today
Waxing Crescent
Oct 30
First Quarter
Nov 6
Full
Nov 14
Last Quarter
Nov 22
New

Today's Extremes

State Highs State Lows

Community

WunderPhotos

Upload Photos

1,765,039 photos uploaded!

Nearby

Snow Depth

Station Depth Elevation
No new snow has been reported.

Earthquake Activity

City Distance Mag. Time & Date
No recent earthquake activity has been reported nearby.
Minimum magnitude displayed is 2.5.

Coastal Water Temperatures

Place Temperature
No Stations Reporting

Nearby Weather Stations